sensor_id;sensor_type;location;lat;lon;timestamp;P1;durP1;ratioP1;P2;durP2;ratioP2
70385;SDS011;63206;55.650;37.500;2022-11-15T00:00:02;4.60;;;1.58;;
70385;SDS011;63206;55.650;37.500;2022-11-15T00:02:47;3.90;;;1.42;;
70385;SDS011;63206;55.650;37.500;2022-11-15T00:05:37;2.97;;;1.13;;
70385;SDS011;63206;55.650;37.500;2022-11-15T00:08:21;3.22;;;1.33;;
70385;SDS011;63206;55.650;37.500;2022-11-15T00:11:10;3.67;;;1.02;;
70385;SDS011;63206;55.650;37.500;2022-11-15T00:13:57;6.88;;;1.48;;
70385;SDS011;63206;55.650;37.500;2022-11-15T00:16:45;3.35;;;1.30;;
70385;SDS011;63206;55.650;37.500;2022-11-15T00:19:32;3.97;;;1.30;;
70385;SDS011;63206;55.650;37.500;2022-11-15T00:22:19;8.15;;;1.48;;
70385;SDS011;63206;55.650;37.500;2022-11-15T00:27:54;3.97;;;1.17;;
70385;SDS011;63206;55.650;37.500;2022-11-15T00:30:41;4.15;;;1.38;;
70385;SDS011;63206;55.650;37.500;2022-11-15T00:33:29;2.78;;;1.20;;
70385;SDS011;63206;55.650;37.500;2022-11-15T00:36:16;3.97;;;1.30;;
70385;SDS011;63206;55.650;37.500;2022-11-15T00:39:04;4.53;;;1.55;;
70385;SDS011;63206;55.650;37.500;2022-11-15T00:41:55;5.75;;;1.10;;
70385;SDS011;63206;55.650;37.500;2022-11-15T00:44:40;3.30;;;1.50;;
70385;SDS011;63206;55.650;37.500;2022-11-15T00:47:31;4.70;;;1.35;;
70385;SDS011;63206;55.650;37.500;2022-11-15T00:50:16;2.22;;;1.20;;
70385;SDS011;63206;55.650;37.500;2022-11-15T00:53:05;5.40;;;1.30;;
70385;SDS011;63206;55.650;37.500;2022-11-15T00:55:52;2.58;;;1.30;;
70385;SDS011;63206;55.650;37.500;2022-11-15T01:01:27;4.63;;;1.27;;
70385;SDS011;63206;55.650;37.500;2022-11-15T01:04:16;3.17;;;1.00;;
70385;SDS011;63206;55.650;37.500;2022-11-15T01:07:06;6.25;;;1.35;;
70385;SDS011;63206;55.650;37.500;2022-11-15T01:09:53;2.90;;;1.33;;
70385;SDS011;63206;55.650;37.500;2022-11-15T01:12:40;6.53;;;1.17;;
70385;SDS011;63206;55.650;37.500;2022-11-15T01:15:28;1.60;;;1.30;;
70385;SDS011;63206;55.650;37.500;2022-11-15T01:18:15;3.28;;;1.10;;
70385;SDS011;63206;55.650;37.500;2022-11-15T01:21:10;2.78;;;1.40;;
70385;SDS011;63206;55.650;37.500;2022-11-15T01:23:57;4.13;;;1.33;;
70385;SDS011;63206;55.650;37.500;2022-11-15T01:26:46;6.95;;;1.48;;
70385;SDS011;63206;55.650;37.500;2022-11-15T01:29:31;4.45;;;1.50;;
70385;SDS011;63206;55.650;37.500;2022-11-15T01:32:21;3.25;;;1.30;;
70385;SDS011;63206;55.650;37.500;2022-11-15T01:35:11;4.15;;;1.20;;
70385;SDS011;63206;55.650;37.500;2022-11-15T01:37:58;5.35;;;1.50;;
70385;SDS011;63206;55.650;37.500;2022-11-15T01:40:46;6.13;;;1.60;;
70385;SDS011;63206;55.650;37.500;2022-11-15T01:46:22;3.90;;;1.30;;
70385;SDS011;63206;55.650;37.500;2022-11-15T01:49:20;2.97;;;1.35;;
70385;SDS011;63206;55.650;37.500;2022-11-15T01:52:13;3.95;;;1.60;;
70385;SDS011;63206;55.650;37.500;2022-11-15T01:57:48;1.98;;;1.45;;
70385;SDS011;63206;55.650;37.500;2022-11-15T02:00:37;1.60;;;1.30;;
70385;SDS011;63206;55.650;37.500;2022-11-15T02:03:25;4.00;;;1.20;;
70385;SDS011;63206;55.650;37.500;2022-11-15T02:06:14;4.85;;;1.40;;
70385;SDS011;63206;55.650;37.500;2022-11-15T02:11:45;3.85;;;1.92;;
70385;SDS011;63206;55.650;37.500;2022-11-15T02:14:33;4.63;;;1.60;;
70385;SDS011;63206;55.650;37.500;2022-11-15T02:29:41;3.97;;;1.58;;
70385;SDS011;63206;55.650;37.500;2022-11-15T02:32:32;4.32;;;1.20;;
70385;SDS011;63206;55.650;37.500;2022-11-15T02:35:29;4.35;;;1.20;;
70385;SDS011;63206;55.650;37.500;2022-11-15T02:42:02;5.40;;;1.70;;
70385;SDS011;63206;55.650;37.500;2022-11-15T02:44:39;2.78;;;1.20;;
70385;SDS011;63206;55.650;37.500;2022-11-15T02:47:24;3.10;;;1.25;;
70385;SDS011;63206;55.650;37.500;2022-11-15T02:50:12;2.63;;;1.38;;
70385;SDS011;63206;55.650;37.500;2022-11-15T02:53:03;3.30;;;1.10;;
70385;SDS011;63206;55.650;37.500;2022-11-15T02:55:50;5.18;;;1.58;;
70385;SDS011;63206;55.650;37.500;2022-11-15T03:01:48;4.40;;;1.45;;
70385;SDS011;63206;55.650;37.500;2022-11-15T03:11:07;4.47;;;1.60;;
70385;SDS011;63206;55.650;37.500;2022-11-15T03:16:38;4.20;;;1.40;;
70385;SDS011;63206;55.650;37.500;2022-11-15T03:22:18;5.85;;;1.45;;
70385;SDS011;63206;55.650;37.500;2022-11-15T03:25:09;3.97;;;1.38;;
70385;SDS011;63206;55.650;37.500;2022-11-15T03:28:01;3.13;;;1.25;;
70385;SDS011;63206;55.650;37.500;2022-11-15T03:30:50;4.97;;;1.77;;
70385;SDS011;63206;55.650;37.500;2022-11-15T03:33:38;4.22;;;2.05;;
70385;SDS011;63206;55.650;37.500;2022-11-15T03:36:23;3.67;;;1.40;;
70385;SDS011;63206;55.650;37.500;2022-11-15T03:39:11;3.45;;;1.50;;
70385;SDS011;63206;55.650;37.500;2022-11-15T03:47:54;4.50;;;1.70;;
70385;SDS011;63206;55.650;37.500;2022-11-15T03:50:42;6.68;;;1.67;;
70385;SDS011;63206;55.650;37.500;2022-11-15T03:53:30;8.45;;;1.80;;
70385;SDS011;63206;55.650;37.500;2022-11-15T03:56:18;5.72;;;1.65;;
70385;SDS011;63206;55.650;37.500;2022-11-15T03:59:06;3.95;;;1.33;;
70385;SDS011;63206;55.650;37.500;2022-11-15T04:01:50;4.80;;;1.70;;
70385;SDS011;63206;55.650;37.500;2022-11-15T04:04:38;3.97;;;1.77;;
70385;SDS011;63206;55.650;37.500;2022-11-15T04:07:28;4.65;;;1.50;;
70385;SDS011;63206;55.650;37.500;2022-11-15T04:10:13;6.22;;;1.55;;
70385;SDS011;63206;55.650;37.500;2022-11-15T04:12:57;4.30;;;1.40;;
70385;SDS011;63206;55.650;37.500;2022-11-15T04:15:42;7.25;;;1.65;;
70385;SDS011;63206;55.650;37.500;2022-11-15T04:18:30;6.70;;;1.40;;
70385;SDS011;63206;55.650;37.500;2022-11-15T04:21:15;2.70;;;1.40;;
70385;SDS011;63206;55.650;37.500;2022-11-15T04:24:18;6.18;;;1.52;;
70385;SDS011;63206;55.650;37.500;2022-11-15T04:29:46;3.72;;;1.10;;
70385;SDS011;63206;55.650;37.500;2022-11-15T04:35:18;2.97;;;1.25;;
70385;SDS011;63206;55.650;37.500;2022-11-15T04:38:06;2.13;;;0.98;;
70385;SDS011;63206;55.650;37.500;2022-11-15T04:40:52;4.03;;;1.27;;
70385;SDS011;63206;55.650;37.500;2022-11-15T04:43:36;6.88;;;2.05;;
70385;SDS011;63206;55.650;37.500;2022-11-15T04:46:24;4.43;;;1.30;;
70385;SDS011;63206;55.650;37.500;2022-11-15T04:49:11;6.25;;;1.42;;
70385;SDS011;63206;55.650;37.500;2022-11-15T04:51:58;4.68;;;1.50;;
70385;SDS011;63206;55.650;37.500;2022-11-15T04:57:38;3.00;;;1.10;;
70385;SDS011;63206;55.650;37.500;2022-11-15T05:00:29;6.25;;;1.83;;
70385;SDS011;63206;55.650;37.500;2022-11-15T05:03:16;3.75;;;1.67;;
70385;SDS011;63206;55.650;37.500;2022-11-15T05:06:20;5.20;;;1.63;;
70385;SDS011;63206;55.650;37.500;2022-11-15T05:11:51;8.45;;;1.88;;
70385;SDS011;63206;55.650;37.500;2022-11-15T05:14:38;6.10;;;1.75;;
70385;SDS011;63206;55.650;37.500;2022-11-15T05:17:28;5.53;;;1.70;;
70385;SDS011;63206;55.650;37.500;2022-11-15T05:20:16;7.65;;;1.58;;
70385;SDS011;63206;55.650;37.500;2022-11-15T05:23:02;3.47;;;1.70;;
70385;SDS011;63206;55.650;37.500;2022-11-15T05:25:50;4.65;;;1.60;;
70385;SDS011;63206;55.650;37.500;2022-11-15T05:28:35;5.97;;;2.05;;
70385;SDS011;63206;55.650;37.500;2022-11-15T05:31:24;5.78;;;1.77;;
70385;SDS011;63206;55.650;37.500;2022-11-15T05:34:08;4.15;;;1.80;;
70385;SDS011;63206;55.650;37.500;2022-11-15T05:36:58;5.55;;;1.80;;
70385;SDS011;63206;55.650;37.500;2022-11-15T05:39:51;6.25;;;2.03;;
70385;SDS011;63206;55.650;37.500;2022-11-15T05:42:36;3.83;;;1.80;;
70385;SDS011;63206;55.650;37.500;2022-11-15T05:45:20;8.18;;;2.03;;
70385;SDS011;63206;55.650;37.500;2022-11-15T05:48:08;5.25;;;1.70;;
70385;SDS011;63206;55.650;37.500;2022-11-15T05:50:56;7.55;;;1.80;;
70385;SDS011;63206;55.650;37.500;2022-11-15T05:53:43;5.35;;;2.03;;
70385;SDS011;63206;55.650;37.500;2022-11-15T05:56:31;6.55;;;1.80;;
70385;SDS011;63206;55.650;37.500;2022-11-15T05:59:16;4.15;;;1.80;;
70385;SDS011;63206;55.650;37.500;2022-11-15T06:04:48;4.70;;;1.67;;
70385;SDS011;63206;55.650;37.500;2022-11-15T06:07:38;5.70;;;1.67;;
70385;SDS011;63206;55.650;37.500;2022-11-15T06:10:28;8.98;;;2.05;;
70385;SDS011;63206;55.650;37.500;2022-11-15T06:13:15;9.25;;;1.90;;
70385;SDS011;63206;55.650;37.500;2022-11-15T06:16:02;9.25;;;2.40;;
70385;SDS011;63206;55.650;37.500;2022-11-15T06:18:49;6.25;;;1.95;;
70385;SDS011;63206;55.650;37.500;2022-11-15T06:21:34;5.97;;;2.10;;
70385;SDS011;63206;55.650;37.500;2022-11-15T06:24:21;7.50;;;1.85;;
70385;SDS011;63206;55.650;37.500;2022-11-15T06:27:10;5.32;;;2.00;;
70385;SDS011;63206;55.650;37.500;2022-11-15T06:29:54;3.65;;;1.80;;
70385;SDS011;63206;55.650;37.500;2022-11-15T06:32:39;4.53;;;1.67;;
70385;SDS011;63206;55.650;37.500;2022-11-15T06:35:29;7.18;;;1.80;;
70385;SDS011;63206;55.650;37.500;2022-11-15T06:38:14;6.57;;;1.80;;
70385;SDS011;63206;55.650;37.500;2022-11-15T06:41:05;5.53;;;1.98;;
70385;SDS011;63206;55.650;37.500;2022-11-15T06:43:53;5.20;;;1.80;;
70385;SDS011;63206;55.650;37.500;2022-11-15T06:46:37;4.95;;;1.77;;
70385;SDS011;63206;55.650;37.500;2022-11-15T06:49:27;5.82;;;1.80;;
70385;SDS011;63206;55.650;37.500;2022-11-15T06:52:15;8.98;;;2.00;;
70385;SDS011;63206;55.650;37.500;2022-11-15T06:55:05;5.63;;;1.83;;
70385;SDS011;63206;55.650;37.500;2022-11-15T06:57:50;5.15;;;1.88;;
70385;SDS011;63206;55.650;37.500;2022-11-15T07:00:41;7.75;;;2.05;;
70385;SDS011;63206;55.650;37.500;2022-11-15T07:03:28;7.22;;;1.92;;
70385;SDS011;63206;55.650;37.500;2022-11-15T07:06:18;3.88;;;1.60;;
70385;SDS011;63206;55.650;37.500;2022-11-15T07:09:02;5.00;;;1.80;;
70385;SDS011;63206;55.650;37.500;2022-11-15T07:11:53;7.45;;;1.80;;
70385;SDS011;63206;55.650;37.500;2022-11-15T07:14:43;5.82;;;1.95;;
70385;SDS011;63206;55.650;37.500;2022-11-15T07:17:30;7.85;;;2.05;;
70385;SDS011;63206;55.650;37.500;2022-11-15T07:20:20;7.55;;;2.28;;
70385;SDS011;63206;55.650;37.500;2022-11-15T07:23:07;8.05;;;2.00;;
70385;SDS011;63206;55.650;37.500;2022-11-15T07:26:01;5.75;;;2.10;;
70385;SDS011;63206;55.650;37.500;2022-11-15T07:28:45;9.70;;;2.30;;
70385;SDS011;63206;55.650;37.500;2022-11-15T07:31:32;6.50;;;1.85;;
70385;SDS011;63206;55.650;37.500;2022-11-15T07:34:19;7.63;;;1.92;;
70385;SDS011;63206;55.650;37.500;2022-11-15T07:37:10;7.22;;;2.30;;
70385;SDS011;63206;55.650;37.500;2022-11-15T07:39:55;5.53;;;2.70;;
70385;SDS011;63206;55.650;37.500;2022-11-15T07:42:40;5.95;;;2.30;;
70385;SDS011;63206;55.650;37.500;2022-11-15T07:45:44;7.50;;;2.45;;
70385;SDS011;63206;55.650;37.500;2022-11-15T07:48:32;7.45;;;2.30;;
70385;SDS011;63206;55.650;37.500;2022-11-15T07:51:17;7.70;;;2.50;;
70385;SDS011;63206;55.650;37.500;2022-11-15T07:54:07;8.32;;;2.42;;
70385;SDS011;63206;55.650;37.500;2022-11-15T07:56:52;8.45;;;2.53;;
70385;SDS011;63206;55.650;37.500;2022-11-15T07:59:39;9.52;;;2.58;;
70385;SDS011;63206;55.650;37.500;2022-11-15T08:02:26;10.40;;;2.60;;
70385;SDS011;63206;55.650;37.500;2022-11-15T08:05:14;9.55;;;2.67;;
70385;SDS011;63206;55.650;37.500;2022-11-15T08:08:05;8.50;;;2.42;;
70385;SDS011;63206;55.650;37.500;2022-11-15T08:10:50;9.07;;;2.53;;
70385;SDS011;63206;55.650;37.500;2022-11-15T08:13:40;8.80;;;2.47;;
70385;SDS011;63206;55.650;37.500;2022-11-15T08:16:30;5.93;;;2.20;;
70385;SDS011;63206;55.650;37.500;2022-11-15T08:19:17;8.52;;;2.63;;
70385;SDS011;63206;55.650;37.500;2022-11-15T08:22:08;6.13;;;2.47;;
70385;SDS011;63206;55.650;37.500;2022-11-15T08:24:55;6.38;;;2.40;;
70385;SDS011;63206;55.650;37.500;2022-11-15T08:27:42;11.20;;;2.20;;
70385;SDS011;63206;55.650;37.500;2022-11-15T08:30:29;12.95;;;2.45;;
70385;SDS011;63206;55.650;37.500;2022-11-15T08:33:20;6.45;;;2.05;;
70385;SDS011;63206;55.650;37.500;2022-11-15T08:36:10;4.57;;;1.80;;
70385;SDS011;63206;55.650;37.500;2022-11-15T08:39:01;8.95;;;2.30;;
70385;SDS011;63206;55.650;37.500;2022-11-15T08:41:46;7.32;;;2.10;;
70385;SDS011;63206;55.650;37.500;2022-11-15T08:44:33;8.55;;;2.40;;
70385;SDS011;63206;55.650;37.500;2022-11-15T08:47:21;8.43;;;2.00;;
70385;SDS011;63206;55.650;37.500;2022-11-15T08:50:09;8.48;;;2.15;;
70385;SDS011;63206;55.650;37.500;2022-11-15T08:52:56;8.70;;;2.60;;
70385;SDS011;63206;55.650;37.500;2022-11-15T08:55:41;8.70;;;2.30;;
70385;SDS011;63206;55.650;37.500;2022-11-15T08:58:28;5.20;;;1.83;;
70385;SDS011;63206;55.650;37.500;2022-11-15T09:01:17;5.60;;;1.98;;
70385;SDS011;63206;55.650;37.500;2022-11-15T09:04:05;7.10;;;2.03;;
70385;SDS011;63206;55.650;37.500;2022-11-15T09:06:52;6.95;;;2.25;;
70385;SDS011;63206;55.650;37.500;2022-11-15T09:09:40;11.70;;;2.85;;
70385;SDS011;63206;55.650;37.500;2022-11-15T09:12:30;7.60;;;1.90;;
70385;SDS011;63206;55.650;37.500;2022-11-15T09:15:18;6.70;;;1.95;;
70385;SDS011;63206;55.650;37.500;2022-11-15T09:18:09;5.75;;;1.75;;
70385;SDS011;63206;55.650;37.500;2022-11-15T09:20:57;6.40;;;1.80;;
70385;SDS011;63206;55.650;37.500;2022-11-15T09:23:42;6.65;;;1.98;;
70385;SDS011;63206;55.650;37.500;2022-11-15T09:26:32;8.25;;;2.10;;
70385;SDS011;63206;55.650;37.500;2022-11-15T09:29:19;7.50;;;2.28;;
70385;SDS011;63206;55.650;37.500;2022-11-15T09:32:09;14.88;;;2.58;;
70385;SDS011;63206;55.650;37.500;2022-11-15T09:35:00;11.52;;;2.45;;
70385;SDS011;63206;55.650;37.500;2022-11-15T09:37:50;7.93;;;2.08;;
70385;SDS011;63206;55.650;37.500;2022-11-15T09:40:40;7.35;;;2.05;;
70385;SDS011;63206;55.650;37.500;2022-11-15T09:43:32;7.18;;;2.00;;
70385;SDS011;63206;55.650;37.500;2022-11-15T09:49:21;5.15;;;1.90;;
70385;SDS011;63206;55.650;37.500;2022-11-15T09:51:49;7.50;;;2.20;;
70385;SDS011;63206;55.650;37.500;2022-11-15T09:54:37;6.63;;;2.13;;
70385;SDS011;63206;55.650;37.500;2022-11-15T09:59:58;7.78;;;2.33;;
70385;SDS011;63206;55.650;37.500;2022-11-15T10:07:34;7.45;;;2.45;;
70385;SDS011;63206;55.650;37.500;2022-11-15T10:10:09;8.27;;;2.90;;
70385;SDS011;63206;55.650;37.500;2022-11-15T10:12:42;10.30;;;2.83;;
70385;SDS011;63206;55.650;37.500;2022-11-15T10:15:16;6.80;;;2.42;;
70385;SDS011;63206;55.650;37.500;2022-11-15T10:20:34;7.43;;;2.30;;
70385;SDS011;63206;55.650;37.500;2022-11-15T10:23:22;9.32;;;2.60;;
70385;SDS011;63206;55.650;37.500;2022-11-15T10:25:54;9.10;;;2.92;;
70385;SDS011;63206;55.650;37.500;2022-11-15T10:30:53;9.27;;;2.42;;
70385;SDS011;63206;55.650;37.500;2022-11-15T10:41:18;13.35;;;2.55;;
70385;SDS011;63206;55.650;37.500;2022-11-15T10:46:38;11.07;;;2.78;;
70385;SDS011;63206;55.650;37.500;2022-11-15T10:51:41;8.85;;;2.60;;
70385;SDS011;63206;55.650;37.500;2022-11-15T10:54:11;13.40;;;2.60;;
70385;SDS011;63206;55.650;37.500;2022-11-15T10:56:43;5.85;;;2.50;;
70385;SDS011;63206;55.650;37.500;2022-11-15T10:59:23;7.38;;;2.65;;
70385;SDS011;63206;55.650;37.500;2022-11-15T11:01:55;8.13;;;2.40;;
70385;SDS011;63206;55.650;37.500;2022-11-15T11:04:26;8.13;;;2.30;;
70385;SDS011;63206;55.650;37.500;2022-11-15T11:06:58;10.93;;;2.83;;
70385;SDS011;63206;55.650;37.500;2022-11-15T11:09:37;7.32;;;2.47;;
70385;SDS011;63206;55.650;37.500;2022-11-15T11:12:09;8.25;;;2.22;;
70385;SDS011;63206;55.650;37.500;2022-11-15T11:14:39;6.95;;;2.30;;
70385;SDS011;63206;55.650;37.500;2022-11-15T11:22:31;7.80;;;2.33;;
70385;SDS011;63206;55.650;37.500;2022-11-15T11:30:24;9.68;;;2.40;;
70385;SDS011;63206;55.650;37.500;2022-11-15T11:32:59;6.68;;;2.17;;
70385;SDS011;63206;55.650;37.500;2022-11-15T11:35:38;7.13;;;2.53;;
70385;SDS011;63206;55.650;37.500;2022-11-15T11:41:19;7.13;;;2.72;;
70385;SDS011;63206;55.650;37.500;2022-11-15T11:43:47;7.78;;;2.63;;
70385;SDS011;63206;55.650;37.500;2022-11-15T11:48:51;6.93;;;2.38;;
70385;SDS011;63206;55.650;37.500;2022-11-15T11:51:21;7.07;;;2.47;;
70385;SDS011;63206;55.650;37.500;2022-11-15T11:53:55;10.25;;;2.72;;
70385;SDS011;63206;55.650;37.500;2022-11-15T11:56:31;11.45;;;2.70;;
70385;SDS011;63206;55.650;37.500;2022-11-15T12:01:56;7.57;;;2.40;;
70385;SDS011;63206;55.650;37.500;2022-11-15T12:04:36;7.38;;;2.33;;
70385;SDS011;63206;55.650;37.500;2022-11-15T12:07:13;5.88;;;2.20;;
70385;SDS011;63206;55.650;37.500;2022-11-15T12:09:48;7.88;;;2.55;;
70385;SDS011;63206;55.650;37.500;2022-11-15T12:15:18;10.80;;;3.08;;
70385;SDS011;63206;55.650;37.500;2022-11-15T12:17:50;7.47;;;2.60;;
70385;SDS011;63206;55.650;37.500;2022-11-15T12:20:18;8.77;;;2.80;;
70385;SDS011;63206;55.650;37.500;2022-11-15T12:25:21;12.25;;;3.00;;
70385;SDS011;63206;55.650;37.500;2022-11-15T12:27:59;8.75;;;2.60;;
70385;SDS011;63206;55.650;37.500;2022-11-15T12:30:27;9.50;;;3.35;;
70385;SDS011;63206;55.650;37.500;2022-11-15T12:32:59;9.00;;;3.10;;
70385;SDS011;63206;55.650;37.500;2022-11-15T12:35:32;9.02;;;2.97;;
70385;SDS011;63206;55.650;37.500;2022-11-15T12:37:59;9.32;;;2.70;;
70385;SDS011;63206;55.650;37.500;2022-11-15T12:40:33;9.45;;;2.92;;
70385;SDS011;63206;55.650;37.500;2022-11-15T12:45:28;10.13;;;2.70;;
70385;SDS011;63206;55.650;37.500;2022-11-15T12:58:28;9.23;;;2.65;;
70385;SDS011;63206;55.650;37.500;2022-11-15T13:01:06;11.23;;;3.03;;
70385;SDS011;63206;55.650;37.500;2022-11-15T13:03:32;8.25;;;2.60;;
70385;SDS011;63206;55.650;37.500;2022-11-15T13:05:59;6.88;;;2.40;;
70385;SDS011;63206;55.650;37.500;2022-11-15T13:08:41;9.75;;;2.67;;
70385;SDS011;63206;55.650;37.500;2022-11-15T13:17:03;8.65;;;3.95;;
70385;SDS011;63206;55.650;37.500;2022-11-15T13:19:38;10.32;;;2.88;;
70385;SDS011;63206;55.650;37.500;2022-11-15T13:22:05;8.70;;;2.85;;
70385;SDS011;63206;55.650;37.500;2022-11-15T13:24:55;10.30;;;2.83;;
70385;SDS011;63206;55.650;37.500;2022-11-15T13:27:24;8.15;;;2.65;;
70385;SDS011;63206;55.650;37.500;2022-11-15T13:29:53;11.40;;;3.15;;
70385;SDS011;63206;55.650;37.500;2022-11-15T13:32:22;6.60;;;2.60;;
70385;SDS011;63206;55.650;37.500;2022-11-15T13:34:50;6.93;;;2.80;;
70385;SDS011;63206;55.650;37.500;2022-11-15T13:39:50;11.23;;;3.17;;
70385;SDS011;63206;55.650;37.500;2022-11-15T13:42:19;7.43;;;3.05;;
70385;SDS011;63206;55.650;37.500;2022-11-15T13:44:59;7.78;;;3.17;;
70385;SDS011;63206;55.650;37.500;2022-11-15T13:47:26;9.18;;;3.05;;
70385;SDS011;63206;55.650;37.500;2022-11-15T13:50:01;10.32;;;2.95;;
70385;SDS011;63206;55.650;37.500;2022-11-15T13:52:30;12.00;;;3.17;;
70385;SDS011;63206;55.650;37.500;2022-11-15T13:55:04;7.65;;;3.13;;
70385;SDS011;63206;55.650;37.500;2022-11-15T14:02:57;8.63;;;3.05;;
70385;SDS011;63206;55.650;37.500;2022-11-15T14:05:32;8.60;;;3.30;;
70385;SDS011;63206;55.650;37.500;2022-11-15T14:07:59;8.90;;;3.10;;
70385;SDS011;63206;55.650;37.500;2022-11-15T14:10:30;10.27;;;3.85;;
70385;SDS011;63206;55.650;37.500;2022-11-15T14:12:57;9.50;;;3.80;;
70385;SDS011;63206;55.650;37.500;2022-11-15T14:17:52;10.55;;;3.63;;
70385;SDS011;63206;55.650;37.500;2022-11-15T14:20:39;10.95;;;3.55;;
70385;SDS011;63206;55.650;37.500;2022-11-15T14:23:18;13.05;;;4.20;;
70385;SDS011;63206;55.650;37.500;2022-11-15T14:25:57;12.75;;;4.00;;
70385;SDS011;63206;55.650;37.500;2022-11-15T14:30:53;12.18;;;3.75;;
70385;SDS011;63206;55.650;37.500;2022-11-15T14:33:32;12.75;;;3.92;;
70385;SDS011;63206;55.650;37.500;2022-11-15T14:36:17;10.25;;;3.80;;
70385;SDS011;63206;55.650;37.500;2022-11-15T14:38:47;8.73;;;3.60;;
70385;SDS011;63206;55.650;37.500;2022-11-15T14:41:20;11.18;;;3.42;;
70385;SDS011;63206;55.650;37.500;2022-11-15T14:43:47;10.75;;;3.65;;
70385;SDS011;63206;55.650;37.500;2022-11-15T14:46:12;8.93;;;3.67;;
70385;SDS011;63206;55.650;37.500;2022-11-15T14:48:43;10.63;;;3.90;;
70385;SDS011;63206;55.650;37.500;2022-11-15T14:51:13;9.25;;;3.00;;
70385;SDS011;63206;55.650;37.500;2022-11-15T14:53:41;11.20;;;2.90;;
70385;SDS011;63206;55.650;37.500;2022-11-15T14:56:08;12.35;;;3.80;;
70385;SDS011;63206;55.650;37.500;2022-11-15T14:58:34;8.63;;;3.55;;
70385;SDS011;63206;55.650;37.500;2022-11-15T15:01:00;10.73;;;4.63;;
70385;SDS011;63206;55.650;37.500;2022-11-15T15:03:27;11.90;;;4.43;;
70385;SDS011;63206;55.650;37.500;2022-11-15T15:05:56;15.05;;;5.38;;
70385;SDS011;63206;55.650;37.500;2022-11-15T15:08:22;12.13;;;4.93;;
70385;SDS011;63206;55.650;37.500;2022-11-15T15:10:48;13.43;;;4.43;;
70385;SDS011;63206;55.650;37.500;2022-11-15T15:13:22;12.27;;;4.75;;
70385;SDS011;63206;55.650;37.500;2022-11-15T15:15:49;14.85;;;4.38;;
70385;SDS011;63206;55.650;37.500;2022-11-15T15:18:15;12.57;;;4.25;;
70385;SDS011;63206;55.650;37.500;2022-11-15T15:20:41;9.13;;;3.28;;
70385;SDS011;63206;55.650;37.500;2022-11-15T15:23:14;12.00;;;3.45;;
70385;SDS011;63206;55.650;37.500;2022-11-15T15:25:41;9.43;;;3.45;;
70385;SDS011;63206;55.650;37.500;2022-11-15T15:28:07;7.95;;;2.80;;
70385;SDS011;63206;55.650;37.500;2022-11-15T15:30:36;8.15;;;2.95;;
70385;SDS011;63206;55.650;37.500;2022-11-15T15:33:02;12.63;;;3.28;;
70385;SDS011;63206;55.650;37.500;2022-11-15T15:35:31;13.27;;;3.40;;
70385;SDS011;63206;55.650;37.500;2022-11-15T15:38:00;8.80;;;3.22;;
70385;SDS011;63206;55.650;37.500;2022-11-15T15:40:27;9.20;;;3.55;;
70385;SDS011;63206;55.650;37.500;2022-11-15T15:42:53;10.25;;;3.67;;
70385;SDS011;63206;55.650;37.500;2022-11-15T15:45:22;14.43;;;4.43;;
70385;SDS011;63206;55.650;37.500;2022-11-15T15:47:51;10.48;;;4.00;;
70385;SDS011;63206;55.650;37.500;2022-11-15T15:52:43;13.27;;;4.65;;
70385;SDS011;63206;55.650;37.500;2022-11-15T15:55:09;10.95;;;3.88;;
70385;SDS011;63206;55.650;37.500;2022-11-15T15:57:41;13.32;;;4.75;;
70385;SDS011;63206;55.650;37.500;2022-11-15T16:00:10;13.38;;;4.57;;
70385;SDS011;63206;55.650;37.500;2022-11-15T16:02:44;13.27;;;4.70;;
70385;SDS011;63206;55.650;37.500;2022-11-15T16:05:19;13.07;;;4.30;;
70385;SDS011;63206;55.650;37.500;2022-11-15T16:12:54;17.40;;;5.13;;
70385;SDS011;63206;55.650;37.500;2022-11-15T16:15:25;10.80;;;3.78;;
70385;SDS011;63206;55.650;37.500;2022-11-15T16:17:53;13.55;;;4.55;;
70385;SDS011;63206;55.650;37.500;2022-11-15T16:20:32;10.88;;;4.07;;
70385;SDS011;63206;55.650;37.500;2022-11-15T16:22:59;13.88;;;4.43;;
70385;SDS011;63206;55.650;37.500;2022-11-15T16:25:25;12.50;;;4.60;;
70385;SDS011;63206;55.650;37.500;2022-11-15T16:27:54;13.25;;;4.93;;
70385;SDS011;63206;55.650;37.500;2022-11-15T16:30:21;12.77;;;5.28;;
70385;SDS011;63206;55.650;37.500;2022-11-15T16:32:50;11.13;;;4.93;;
70385;SDS011;63206;55.650;37.500;2022-11-15T16:35:16;12.45;;;4.68;;
70385;SDS011;63206;55.650;37.500;2022-11-15T16:37:42;13.20;;;5.22;;
70385;SDS011;63206;55.650;37.500;2022-11-15T16:42:44;13.98;;;5.38;;
70385;SDS011;63206;55.650;37.500;2022-11-15T16:45:15;13.45;;;6.10;;
70385;SDS011;63206;55.650;37.500;2022-11-15T16:47:44;14.32;;;5.68;;
70385;SDS011;63206;55.650;37.500;2022-11-15T16:50:28;15.63;;;5.85;;
70385;SDS011;63206;55.650;37.500;2022-11-15T16:52:55;12.52;;;5.75;;
70385;SDS011;63206;55.650;37.500;2022-11-15T16:55:27;13.25;;;5.55;;
70385;SDS011;63206;55.650;37.500;2022-11-15T16:57:53;14.65;;;5.65;;
70385;SDS011;63206;55.650;37.500;2022-11-15T17:00:20;15.27;;;5.78;;
70385;SDS011;63206;55.650;37.500;2022-11-15T17:02:49;14.98;;;5.72;;
70385;SDS011;63206;55.650;37.500;2022-11-15T17:05:22;16.02;;;6.05;;
70385;SDS011;63206;55.650;37.500;2022-11-15T17:07:50;16.45;;;5.65;;
70385;SDS011;63206;55.650;37.500;2022-11-15T17:10:22;12.95;;;5.63;;
70385;SDS011;63206;55.650;37.500;2022-11-15T17:12:52;15.32;;;6.50;;
70385;SDS011;63206;55.650;37.500;2022-11-15T17:15:25;17.38;;;6.00;;
70385;SDS011;63206;55.650;37.500;2022-11-15T17:17:57;16.80;;;6.40;;
70385;SDS011;63206;55.650;37.500;2022-11-15T17:20:25;16.10;;;6.65;;
70385;SDS011;63206;55.650;37.500;2022-11-15T17:22:51;14.10;;;6.10;;
70385;SDS011;63206;55.650;37.500;2022-11-15T17:25:20;16.70;;;6.70;;
70385;SDS011;63206;55.650;37.500;2022-11-15T17:27:48;17.20;;;6.32;;
70385;SDS011;63206;55.650;37.500;2022-11-15T17:30:15;17.00;;;6.13;;
70385;SDS011;63206;55.650;37.500;2022-11-15T17:32:41;13.60;;;6.07;;
70385;SDS011;63206;55.650;37.500;2022-11-15T17:35:08;17.92;;;7.00;;
70385;SDS011;63206;55.650;37.500;2022-11-15T17:37:34;17.50;;;6.22;;
70385;SDS011;63206;55.650;37.500;2022-11-15T17:40:03;15.55;;;5.90;;
70385;SDS011;63206;55.650;37.500;2022-11-15T17:42:29;16.42;;;5.75;;
70385;SDS011;63206;55.650;37.500;2022-11-15T17:44:55;14.35;;;6.38;;
70385;SDS011;63206;55.650;37.500;2022-11-15T17:47:21;14.85;;;6.50;;
70385;SDS011;63206;55.650;37.500;2022-11-15T17:49:47;14.57;;;6.47;;
70385;SDS011;63206;55.650;37.500;2022-11-15T17:52:16;16.95;;;6.82;;
70385;SDS011;63206;55.650;37.500;2022-11-15T17:54:42;15.95;;;5.97;;
70385;SDS011;63206;55.650;37.500;2022-11-15T17:57:08;16.15;;;6.85;;
70385;SDS011;63206;55.650;37.500;2022-11-15T17:59:34;15.40;;;7.00;;
70385;SDS011;63206;55.650;37.500;2022-11-15T18:02:00;20.33;;;7.18;;
70385;SDS011;63206;55.650;37.500;2022-11-15T18:04:26;16.33;;;6.75;;
70385;SDS011;63206;55.650;37.500;2022-11-15T18:06:53;16.88;;;6.72;;
70385;SDS011;63206;55.650;37.500;2022-11-15T18:09:20;17.83;;;6.78;;
70385;SDS011;63206;55.650;37.500;2022-11-15T18:11:46;17.13;;;6.07;;
70385;SDS011;63206;55.650;37.500;2022-11-15T18:14:16;15.15;;;5.97;;
70385;SDS011;63206;55.650;37.500;2022-11-15T18:16:43;15.68;;;6.28;;
70385;SDS011;63206;55.650;37.500;2022-11-15T18:19:09;14.38;;;5.72;;
70385;SDS011;63206;55.650;37.500;2022-11-15T18:21:41;16.75;;;6.53;;
70385;SDS011;63206;55.650;37.500;2022-11-15T18:24:32;17.30;;;6.30;;